createdAt,value
2022-12-18T00:01:26.291Z,84.30
2022-12-18T00:03:55.942Z,84.40
2022-12-18T00:06:26.072Z,84.40
2022-12-18T00:08:53.881Z,84.50
2022-12-18T00:11:24.444Z,84.70
2022-12-18T00:13:52.887Z,84.80
2022-12-18T00:16:23.402Z,85.00
2022-12-18T00:18:53.707Z,85.00
2022-12-18T00:21:22.097Z,85.10
2022-12-18T00:23:50.818Z,85.40
2022-12-18T00:26:24.075Z,85.50
2022-12-18T00:28:56.725Z,85.50
2022-12-18T00:31:25.574Z,85.50
2022-12-18T00:33:58.064Z,85.60
2022-12-18T00:36:28.871Z,85.60
2022-12-18T00:38:57.285Z,85.60
2022-12-18T00:41:43.814Z,85.60
2022-12-18T00:44:16.021Z,85.80
2022-12-18T00:46:44.066Z,85.90
2022-12-18T00:49:11.344Z,85.80
2022-12-18T00:51:38.735Z,86.10
2022-12-18T00:54:06.116Z,86.00
2022-12-18T00:56:33.717Z,86.10
2022-12-18T00:59:01.107Z,86.20
2022-12-18T01:01:29.489Z,86.00
2022-12-18T01:04:02.071Z,86.10
2022-12-18T01:06:30.191Z,86.10
2022-12-18T01:08:57.830Z,86.00
2022-12-18T01:11:25.591Z,86.00
2022-12-18T01:13:54.569Z,86.10
2022-12-18T01:16:23.879Z,86.00
2022-12-18T01:18:55.549Z,86.00
2022-12-18T01:21:24.127Z,85.80
2022-12-18T01:23:56.420Z,85.90
2022-12-18T01:26:26.553Z,85.90
2022-12-18T01:28:55.740Z,86.10
2022-12-18T01:31:25.514Z,86.20
2022-12-18T01:33:53.970Z,86.40
2022-12-18T01:36:30.395Z,86.50
2022-12-18T01:39:00.569Z,86.60
2022-12-18T01:41:53.365Z,86.60
2022-12-18T01:45:02.381Z,86.80
2022-12-18T01:47:52.437Z,86.90
2022-12-18T01:50:29.534Z,86.90
2022-12-18T01:53:03.345Z,86.90
2022-12-18T01:55:34.589Z,87.10
2022-12-18T01:58:02.536Z,87.10
2022-12-18T02:00:30.434Z,87.30
2022-12-18T02:02:58.238Z,87.50
2022-12-18T02:06:10.976Z,87.50
2022-12-18T02:08:49.506Z,87.50
2022-12-18T02:11:28.377Z,87.60
2022-12-18T02:14:10.062Z,87.80
2022-12-18T02:16:47.924Z,87.80
2022-12-18T02:19:46.629Z,87.90
2022-12-18T02:22:37.876Z,88.10
2022-12-18T02:25:33.553Z,88.20
2022-12-18T02:28:05.151Z,88.30
2022-12-18T02:30:37.176Z,88.40
2022-12-18T02:33:07.429Z,88.50
2022-12-18T02:35:36.389Z,88.50
2022-12-18T02:38:05.667Z,88.60
2022-12-18T02:40:38.397Z,88.70
2022-12-18T02:43:15.525Z,88.50
2022-12-18T02:45:58.725Z,88.60
2022-12-18T02:48:34.100Z,88.60
2022-12-18T02:51:04.528Z,88.60
2022-12-18T02:53:37.699Z,88.70
2022-12-18T02:56:18.538Z,88.80
2022-12-18T02:59:01.209Z,88.80
2022-12-18T03:01:52.248Z,88.80
2022-12-18T03:04:35.189Z,88.70
2022-12-18T03:07:09.761Z,88.70
2022-12-18T03:09:48.703Z,88.60
2022-12-18T03:12:25.605Z,88.70
2022-12-18T03:15:17.605Z,88.90
2022-12-18T03:17:53.260Z,88.80
2022-12-18T03:20:23.510Z,88.70
2022-12-18T03:22:59.166Z,88.70
2022-12-18T03:25:27.859Z,88.90
2022-12-18T03:27:59.888Z,89.00
2022-12-18T03:30:29.543Z,89.00
2022-12-18T03:33:06.698Z,89.00
2022-12-18T03:35:38.606Z,89.20
2022-12-18T03:38:07.137Z,89.10
2022-12-18T03:41:07.649Z,89.20
2022-12-18T03:44:05.021Z,89.40
2022-12-18T03:46:59.638Z,89.40
2022-12-18T03:49:49.432Z,89.40
2022-12-18T03:53:01.516Z,89.40
2022-12-18T03:55:33.601Z,89.10
2022-12-18T03:58:05.921Z,88.90
2022-12-18T04:00:44.526Z,88.70
2022-12-18T04:03:14.848Z,88.80
2022-12-18T04:05:51.317Z,89.00
2022-12-18T04:08:22.397Z,89.00
2022-12-18T04:11:01.289Z,88.90
2022-12-18T04:13:37.999Z,88.90
2022-12-18T04:16:10.608Z,88.90
2022-12-18T04:18:42.334Z,89.00
2022-12-18T04:21:11.283Z,89.00
2022-12-18T04:23:39.120Z,88.90
2022-12-18T04:26:07.314Z,89.00
2022-12-18T04:28:44.692Z,89.20
2022-12-18T04:31:14.026Z,89.00
2022-12-18T04:33:42.409Z,89.00
2022-12-18T04:36:10.987Z,88.90
2022-12-18T04:38:39.222Z,88.90
2022-12-18T04:41:11.250Z,88.70
2022-12-18T04:43:38.981Z,88.90
2022-12-18T04:46:09.058Z,89.20
2022-12-18T04:48:37.541Z,89.00
2022-12-18T04:51:05.999Z,89.00
2022-12-18T04:53:34.127Z,88.80
2022-12-18T04:56:13.290Z,88.80
2022-12-18T04:58:42.436Z,88.70
2022-12-18T05:01:10.683Z,88.70
2022-12-18T05:03:38.899Z,88.50
2022-12-18T05:06:07.511Z,88.40
2022-12-18T05:08:35.529Z,88.30
2022-12-18T05:11:04.369Z,88.30
2022-12-18T05:13:36.470Z,88.30
2022-12-18T05:16:04.737Z,88.30
2022-12-18T05:18:32.619Z,88.30
2022-12-18T05:21:00.078Z,88.40
2022-12-18T05:23:27.913Z,88.20
2022-12-18T05:26:01.222Z,88.10
2022-12-18T05:28:31.104Z,88.40
2022-12-18T05:31:01.074Z,88.40
2022-12-18T05:33:32.199Z,88.10
2022-12-18T05:36:05.565Z,88.10
2022-12-18T05:38:34.480Z,88.20
2022-12-18T05:41:02.229Z,88.50
2022-12-18T05:43:30.238Z,88.60
2022-12-18T05:45:58.634Z,88.50
2022-12-18T05:48:26.371Z,88.20
2022-12-18T05:50:53.777Z,88.00
2022-12-18T05:53:22.115Z,87.90
2022-12-18T05:55:49.746Z,88.20
2022-12-18T05:58:17.294Z,88.50
2022-12-18T06:00:46.951Z,88.60
2022-12-18T06:03:14.898Z,88.60
2022-12-18T06:05:44.545Z,88.60
2022-12-18T06:08:13.089Z,88.90
2022-12-18T06:10:41.539Z,88.80
2022-12-18T06:13:09.356Z,88.90
2022-12-18T06:15:40.028Z,88.80
2022-12-18T06:18:07.738Z,88.60
2022-12-18T06:20:37.624Z,88.70
2022-12-18T06:23:04.899Z,88.60
2022-12-18T06:25:32.362Z,88.50
2022-12-18T06:28:00.149Z,88.40
2022-12-18T06:30:27.386Z,88.40
2022-12-18T06:32:56.889Z,88.30
2022-12-18T06:35:24.796Z,88.30
2022-12-18T06:37:52.123Z,88.30
2022-12-18T06:40:19.846Z,88.50
2022-12-18T06:42:47.813Z,88.60
2022-12-18T06:45:15.103Z,88.60
2022-12-18T06:47:42.741Z,89.20
2022-12-18T06:50:10.440Z,88.50
2022-12-18T06:52:38.241Z,88.50
2022-12-18T06:55:06.545Z,88.40
2022-12-18T06:57:33.795Z,88.10
2022-12-18T07:00:01.533Z,88.30
2022-12-18T07:02:28.891Z,88.40
2022-12-18T07:04:56.290Z,88.40
2022-12-18T07:07:23.586Z,88.00
2022-12-18T07:09:51.763Z,88.20
2022-12-18T07:12:19.448Z,88.30
2022-12-18T07:14:46.742Z,88.30
2022-12-18T07:17:14.352Z,88.30
2022-12-18T07:19:41.794Z,88.10
2022-12-18T07:22:09.388Z,88.10
2022-12-18T07:24:36.780Z,87.90
2022-12-18T07:27:04.189Z,88.70
2022-12-18T07:29:32.149Z,88.10
2022-12-18T07:31:59.797Z,88.30
2022-12-18T07:34:27.121Z,88.20
2022-12-18T07:36:54.823Z,88.40
2022-12-18T07:39:22.110Z,88.70
2022-12-18T07:42:09.387Z,88.60
2022-12-18T07:44:37.383Z,88.50
2022-12-18T07:47:07.760Z,88.60
2022-12-18T07:49:38.978Z,88.30
2022-12-18T07:52:06.268Z,88.10
2022-12-18T07:54:34.802Z,88.00
2022-12-18T07:57:02.981Z,87.90
2022-12-18T07:59:30.231Z,87.80
2022-12-18T08:01:57.680Z,87.70
2022-12-18T08:04:25.356Z,87.40
2022-12-18T08:06:52.930Z,87.00
2022-12-18T08:09:20.313Z,87.00
2022-12-18T08:11:47.931Z,86.90
2022-12-18T08:14:15.691Z,86.50
2022-12-18T08:16:43.246Z,86.50
2022-12-18T08:19:13.912Z,86.30
2022-12-18T08:21:41.393Z,86.00
2022-12-18T08:24:10.439Z,85.80
2022-12-18T08:26:38.173Z,85.50
2022-12-18T08:29:05.759Z,84.90
2022-12-18T08:31:35.222Z,84.30
2022-12-18T08:34:03.217Z,84.00
2022-12-18T08:36:30.766Z,84.00
2022-12-18T08:38:58.747Z,84.00
2022-12-18T08:41:26.541Z,83.90
2022-12-18T08:44:12.434Z,82.70
2022-12-18T08:46:43.177Z,81.80
2022-12-18T08:49:12.119Z,82.70
2022-12-18T08:51:40.008Z,82.80
2022-12-18T08:54:08.074Z,82.90
2022-12-18T08:56:35.613Z,82.50
2022-12-18T08:59:03.381Z,81.90
2022-12-18T09:01:31.130Z,81.50
2022-12-18T09:03:59.360Z,81.60
2022-12-18T09:06:27.686Z,80.70
2022-12-18T09:08:56.081Z,80.60
2022-12-18T09:11:26.142Z,80.20
2022-12-18T09:13:55.059Z,80.20
2022-12-18T09:16:27.401Z,79.70
2022-12-18T09:19:00.721Z,79.10
2022-12-18T09:21:31.341Z,79.20
2022-12-18T09:24:00.524Z,79.60
2022-12-18T09:26:28.750Z,78.90
2022-12-18T09:28:56.847Z,78.50
2022-12-18T09:31:26.091Z,78.40
2022-12-18T09:33:55.769Z,78.10
2022-12-18T09:36:23.050Z,78.60
2022-12-18T09:38:51.262Z,78.50
2022-12-18T09:41:56.961Z,78.90
2022-12-18T09:44:47.558Z,78.90
2022-12-18T09:47:35.315Z,77.80
2022-12-18T09:50:11.632Z,78.20
2022-12-18T09:52:49.457Z,78.00
2022-12-18T09:55:36.864Z,78.00
2022-12-18T09:58:36.313Z,77.70
2022-12-18T10:01:10.863Z,77.90
2022-12-18T10:03:38.623Z,78.50
2022-12-18T10:06:16.524Z,78.20
2022-12-18T10:08:47.530Z,78.50
2022-12-18T10:11:49.095Z,78.40
2022-12-18T10:14:43.028Z,78.60
2022-12-18T10:17:35.538Z,78.20
2022-12-18T10:20:35.523Z,78.60
2022-12-18T10:23:30.673Z,78.10
2022-12-18T10:26:08.126Z,78.00
2022-12-18T10:28:41.509Z,78.20
2022-12-18T10:31:19.257Z,78.20
2022-12-18T10:33:46.987Z,78.00
2022-12-18T10:36:14.738Z,78.10
2022-12-18T10:38:42.890Z,77.90
2022-12-18T10:41:21.780Z,77.10
2022-12-18T10:43:50.020Z,77.30
2022-12-18T10:46:21.105Z,77.60
2022-12-18T10:48:48.408Z,77.70
2022-12-18T10:51:34.765Z,77.10
2022-12-18T10:54:08.008Z,77.00
2022-12-18T10:56:38.480Z,76.70
2022-12-18T10:59:13.017Z,76.90
2022-12-18T11:01:52.846Z,74.70
2022-12-18T11:04:29.064Z,75.30
2022-12-18T11:07:08.533Z,75.90
2022-12-18T11:09:40.752Z,75.60
2022-12-18T11:12:18.870Z,75.70
2022-12-18T11:14:54.685Z,75.80
2022-12-18T11:17:33.072Z,75.50
2022-12-18T11:20:19.765Z,75.50
2022-12-18T11:23:04.133Z,76.60
2022-12-18T11:25:35.009Z,75.10
2022-12-18T11:28:24.416Z,75.60
2022-12-18T11:31:21.887Z,75.40
2022-12-18T11:34:29.569Z,75.50
2022-12-18T11:37:00.638Z,74.80
2022-12-18T11:39:39.773Z,74.70
2022-12-18T11:42:20.968Z,75.10
2022-12-18T11:44:57.318Z,75.30
2022-12-18T11:47:55.302Z,75.90
2022-12-18T11:50:27.572Z,76.20
2022-12-18T11:52:59.288Z,76.50
2022-12-18T11:55:57.268Z,76.70
2022-12-18T11:58:49.045Z,76.00
2022-12-18T12:01:52.067Z,76.00
2022-12-18T12:04:41.169Z,76.40
2022-12-18T12:07:20.983Z,76.40
2022-12-18T12:10:17.833Z,76.00
2022-12-18T12:12:58.055Z,75.80
2022-12-18T12:15:46.362Z,76.40
2022-12-18T12:18:32.588Z,76.20
2022-12-18T12:21:20.470Z,76.30
2022-12-18T12:24:38.699Z,76.60
2022-12-18T12:27:06.093Z,75.90
2022-12-18T12:29:46.154Z,77.00
2022-12-18T12:32:25.861Z,76.60
2022-12-18T12:35:00.275Z,77.50
2022-12-18T12:37:36.129Z,78.20
2022-12-18T12:40:15.312Z,78.60
2022-12-18T12:43:13.677Z,78.40
2022-12-18T12:45:48.405Z,78.80
2022-12-18T12:48:41.434Z,79.00
2022-12-18T12:51:39.960Z,78.70
2022-12-18T12:54:17.374Z,78.70
2022-12-18T12:56:52.401Z,78.40
2022-12-18T12:59:47.075Z,79.00
2022-12-18T13:02:17.457Z,79.30
2022-12-18T13:04:57.575Z,79.00
2022-12-18T13:07:33.674Z,79.10
2022-12-18T13:10:19.205Z,80.50
2022-12-18T13:13:10.983Z,80.00
2022-12-18T13:15:47.040Z,79.40
2022-12-18T13:18:16.290Z,80.30
2022-12-18T13:20:55.316Z,80.50
2022-12-18T13:23:40.291Z,80.20
2022-12-18T13:26:28.169Z,80.30
2022-12-18T13:28:58.242Z,80.60
2022-12-18T13:31:41.695Z,80.20
2022-12-18T13:34:28.387Z,80.90
2022-12-18T13:37:18.045Z,81.50
2022-12-18T13:39:45.522Z,81.60
2022-12-18T13:42:36.003Z,81.30
2022-12-18T13:45:23.460Z,81.30
2022-12-18T13:47:51.503Z,81.90
2022-12-18T13:50:35.433Z,81.80
2022-12-18T13:53:05.653Z,82.40
2022-12-18T13:55:33.561Z,82.00
2022-12-18T13:58:07.349Z,82.10
2022-12-18T14:00:38.134Z,82.30
2022-12-18T14:03:22.710Z,82.10
2022-12-18T14:06:04.293Z,82.30
2022-12-18T14:08:40.643Z,82.30
2022-12-18T14:11:19.069Z,82.70
2022-12-18T14:13:47.748Z,82.90
2022-12-18T14:16:17.994Z,83.10
2022-12-18T14:18:56.916Z,83.10
2022-12-18T14:21:39.859Z,82.90
2022-12-18T14:24:19.711Z,83.60
2022-12-18T14:27:08.513Z,83.60
2022-12-18T14:29:36.527Z,83.60
2022-12-18T14:32:19.420Z,83.80
2022-12-18T14:34:48.242Z,83.80
2022-12-18T14:37:18.945Z,84.30
2022-12-18T14:40:04.400Z,84.30
2022-12-18T14:42:34.959Z,84.30
2022-12-18T14:45:41.525Z,84.50
2022-12-18T14:48:19.698Z,84.90
2022-12-18T14:51:06.025Z,85.60
2022-12-18T14:53:40.329Z,84.50
2022-12-18T14:56:23.182Z,84.80
2022-12-18T14:59:05.635Z,85.20
2022-12-18T15:01:38.459Z,85.40
2022-12-18T15:04:23.751Z,85.20
2022-12-18T15:07:10.647Z,85.50
2022-12-18T15:09:39.640Z,85.80
2022-12-18T15:12:25.598Z,85.90
2022-12-18T15:14:52.862Z,85.60
2022-12-18T15:17:25.806Z,85.80
2022-12-18T15:20:01.513Z,85.90
2022-12-18T15:22:30.511Z,86.70
2022-12-18T15:24:59.391Z,86.20
2022-12-18T15:27:36.881Z,86.00
2022-12-18T15:30:26.069Z,86.10
2022-12-18T15:33:14.096Z,86.40
2022-12-18T15:35:46.848Z,86.30
2022-12-18T15:38:14.554Z,86.30
2022-12-18T15:40:41.978Z,86.90
2022-12-18T15:43:29.208Z,86.30
2022-12-18T15:45:56.870Z,86.30
2022-12-18T15:48:24.811Z,86.40
2022-12-18T15:50:55.055Z,86.30
2022-12-18T15:53:23.263Z,86.40
2022-12-18T15:56:09.469Z,86.20
2022-12-18T15:58:38.536Z,86.30
2022-12-18T16:01:10.297Z,86.20
2022-12-18T16:03:38.751Z,86.30
2022-12-18T16:06:06.669Z,86.30
2022-12-18T16:08:34.351Z,86.30
2022-12-18T16:11:02.766Z,86.20
2022-12-18T16:13:30.256Z,86.30
2022-12-18T16:15:57.746Z,86.20
2022-12-18T16:18:27.409Z,86.10
2022-12-18T16:20:54.785Z,86.30
2022-12-18T16:23:22.139Z,86.10
2022-12-18T16:25:49.495Z,86.20
2022-12-18T16:28:16.783Z,86.00
2022-12-18T16:30:44.786Z,85.80
2022-12-18T16:33:13.376Z,86.10
2022-12-18T16:35:41.036Z,86.10
2022-12-18T16:38:08.438Z,86.10
2022-12-18T16:40:55.803Z,86.10
2022-12-18T16:43:23.282Z,86.10
2022-12-18T16:45:50.631Z,86.10
2022-12-18T16:48:19.379Z,86.30
2022-12-18T16:50:46.779Z,86.50
2022-12-18T16:53:14.326Z,86.40
2022-12-18T16:55:41.704Z,86.40
2022-12-18T16:58:09.008Z,86.50
2022-12-18T17:00:39.307Z,86.60
2022-12-18T17:03:06.928Z,86.70
2022-12-18T17:05:35.357Z,86.90
2022-12-18T17:08:02.668Z,87.10
2022-12-18T17:10:29.954Z,87.10
2022-12-18T17:12:57.273Z,87.00
2022-12-18T17:15:24.683Z,87.20
2022-12-18T17:17:52.141Z,87.30
2022-12-18T17:20:19.471Z,87.60
2022-12-18T17:22:47.050Z,87.50
2022-12-18T17:25:14.450Z,87.60
2022-12-18T17:27:42.088Z,87.60
2022-12-18T17:30:10.494Z,87.50
2022-12-18T17:32:37.905Z,87.40
2022-12-18T17:35:07.306Z,87.50
2022-12-18T17:37:36.474Z,87.70
2022-12-18T17:40:04.345Z,87.50
2022-12-18T17:42:31.941Z,87.70
2022-12-18T17:44:59.377Z,87.80
2022-12-18T17:47:26.653Z,87.70
2022-12-18T17:49:53.955Z,87.60
2022-12-18T17:52:23.035Z,87.70
2022-12-18T17:54:50.580Z,87.80
2022-12-18T17:57:18.714Z,87.80
2022-12-18T17:59:46.027Z,87.70
2022-12-18T18:02:13.706Z,87.70
2022-12-18T18:04:41.445Z,87.80
2022-12-18T18:07:09.719Z,87.80
2022-12-18T18:09:37.087Z,87.80
2022-12-18T18:12:23.137Z,87.90
2022-12-18T18:14:50.665Z,87.60
2022-12-18T18:17:19.136Z,87.80
2022-12-18T18:19:46.818Z,87.80
2022-12-18T18:22:17.094Z,87.70
2022-12-18T18:24:46.961Z,87.70
2022-12-18T18:27:14.996Z,87.90
2022-12-18T18:29:42.534Z,87.80
2022-12-18T18:32:10.269Z,87.90
2022-12-18T18:34:40.531Z,87.80
2022-12-18T18:37:09.107Z,87.90
2022-12-18T18:39:36.727Z,87.90
2022-12-18T18:42:04.324Z,88.10
2022-12-18T18:44:31.854Z,88.00
2022-12-18T18:46:59.856Z,88.10
2022-12-18T18:49:28.945Z,88.20
2022-12-18T18:51:59.262Z,88.30
2022-12-18T18:54:26.785Z,88.30
2022-12-18T18:59:42.235Z,88.00
2022-12-18T19:02:15.747Z,88.20
2022-12-18T19:04:46.126Z,88.50
2022-12-18T19:07:29.888Z,88.30
2022-12-18T19:10:04.047Z,88.40
2022-12-18T19:12:51.767Z,88.50
2022-12-18T19:15:19.444Z,88.20
2022-12-18T19:17:47.564Z,88.30
2022-12-18T19:20:16.837Z,88.50
2022-12-18T19:22:47.949Z,88.60
2022-12-18T19:25:32.291Z,88.50
2022-12-18T19:28:07.796Z,88.50
2022-12-18T19:30:42.879Z,88.40
2022-12-18T19:33:41.786Z,88.30
2022-12-18T19:35:58.387Z,88.50
2022-12-18T19:38:26.087Z,89.20
2022-12-18T19:40:54.968Z,88.70
2022-12-18T19:43:23.044Z,88.70
2022-12-18T19:45:55.543Z,88.60
2022-12-18T19:48:22.944Z,88.60
2022-12-18T19:50:50.401Z,88.60
2022-12-18T19:53:18.089Z,89.20
2022-12-18T19:55:45.675Z,88.40
2022-12-18T19:58:15.084Z,88.50
2022-12-18T20:00:42.400Z,88.50
2022-12-18T20:03:21.300Z,88.50
2022-12-18T20:05:52.899Z,88.60
2022-12-18T20:08:20.533Z,88.50
2022-12-18T20:10:49.123Z,88.70
2022-12-18T20:13:17.105Z,89.00
2022-12-18T20:15:45.448Z,88.90
2022-12-18T20:18:13.053Z,88.70
2022-12-18T20:20:40.835Z,88.40
2022-12-18T20:23:08.236Z,88.50
2022-12-18T20:25:35.831Z,88.70
2022-12-18T20:28:03.107Z,88.80
2022-12-18T20:30:30.705Z,88.80
2022-12-18T20:32:58.189Z,89.00
2022-12-18T20:35:28.144Z,89.60
2022-12-18T20:37:56.881Z,88.80
2022-12-18T20:40:25.165Z,88.90
2022-12-18T20:42:52.702Z,88.90
2022-12-18T20:45:20.384Z,89.00
2022-12-18T20:47:47.897Z,88.90
2022-12-18T20:50:15.531Z,88.80
2022-12-18T20:52:43.267Z,88.80
2022-12-18T20:55:10.772Z,89.60
2022-12-18T20:57:39.352Z,88.80
2022-12-18T21:00:07.823Z,88.70
2022-12-18T21:02:35.989Z,88.70
2022-12-18T21:05:03.598Z,88.80
2022-12-18T21:07:30.946Z,88.90
2022-12-18T21:09:58.330Z,89.00
2022-12-18T21:12:33.448Z,89.10
2022-12-18T21:15:09.860Z,89.30
2022-12-18T21:17:37.436Z,89.50
2022-12-18T21:20:11.679Z,89.70
2022-12-18T21:22:44.980Z,89.80
2022-12-18T21:25:12.271Z,90.00
2022-12-18T21:27:39.700Z,90.00
2022-12-18T21:30:07.972Z,90.10
2022-12-18T21:32:35.990Z,90.10
2022-12-18T21:35:03.579Z,90.20
2022-12-18T21:37:30.883Z,90.30
2022-12-18T21:39:58.273Z,90.50
2022-12-18T21:42:44.056Z,90.50
2022-12-18T21:45:12.275Z,90.50
2022-12-18T21:47:39.894Z,90.80
2022-12-18T21:50:07.615Z,90.60
2022-12-18T21:52:35.215Z,90.70
2022-12-18T21:55:09.068Z,90.70
2022-12-18T21:57:40.639Z,90.70
2022-12-18T22:00:19.191Z,90.80
2022-12-18T22:02:48.723Z,90.80
2022-12-18T22:05:35.795Z,90.90
2022-12-18T22:08:03.442Z,90.90
2022-12-18T22:10:31.099Z,91.00
2022-12-18T22:12:58.783Z,91.00
2022-12-18T22:15:26.172Z,91.10
2022-12-18T22:17:59.949Z,91.10
2022-12-18T22:20:30.010Z,91.10
2022-12-18T22:22:58.153Z,91.10
2022-12-18T22:25:26.187Z,91.20
2022-12-18T22:28:11.942Z,91.20
2022-12-18T22:30:39.303Z,91.20
2022-12-18T22:33:06.719Z,91.20
2022-12-18T22:35:34.126Z,91.20
2022-12-18T22:38:02.071Z,91.30
2022-12-18T22:40:29.727Z,91.30
2022-12-18T22:42:57.837Z,91.30
2022-12-18T22:45:26.319Z,91.30
2022-12-18T22:47:53.835Z,91.30
2022-12-18T22:50:21.338Z,91.40
2022-12-18T22:52:48.716Z,91.40
2022-12-18T22:55:16.333Z,91.40
2022-12-18T22:57:49.195Z,91.40
2022-12-18T23:00:24.255Z,91.40
2022-12-18T23:03:00.152Z,91.40
2022-12-18T23:05:29.190Z,91.40
2022-12-18T23:07:56.529Z,91.50
2022-12-18T23:10:24.160Z,91.50
2022-12-18T23:12:51.437Z,91.50
2022-12-18T23:15:19.023Z,91.50
2022-12-18T23:17:57.118Z,91.50
2022-12-18T23:20:24.966Z,91.50
2022-12-18T23:22:53.033Z,91.50
2022-12-18T23:25:20.325Z,91.50
2022-12-18T23:27:47.851Z,91.50
2022-12-18T23:30:15.682Z,91.50
2022-12-18T23:32:42.935Z,91.50
2022-12-18T23:35:10.324Z,91.40
2022-12-18T23:37:58.755Z,91.40
2022-12-18T23:40:27.723Z,91.40
2022-12-18T23:42:55.565Z,91.40
2022-12-18T23:45:22.913Z,91.40
2022-12-18T23:47:51.360Z,91.40
2022-12-18T23:50:18.972Z,91.40
2022-12-18T23:52:49.549Z,91.50
2022-12-18T23:55:16.841Z,91.40
2022-12-18T23:57:44.243Z,91.50
